Time;durP1;ratioP1;P1;durP2;ratioP2;P2;SDS_P1;SDS_P2;PMS_P1;PMS_P2;Temp;Humidity;BMP_temperature;BMP_pressure;BME280_temperature;BME280_humidity;BME280_pressure;Samples;Min_cycle;Max_cycle;Signal;HPM_P1;HPM_P2
2022/08/05 00:00:24;;;;;;;2.73;2.53;;;;;;;;;;5019022;28;20212;-84
2022/08/05 00:03:28;;;;;;;5.40;2.40;;;;;;;;;;5008397;28;20193;-84
2022/08/05 00:06:32;;;;;;;5.80;2.50;;;;;;;;;;5030358;28;20197;-84
2022/08/05 00:09:36;;;;;;;2.40;2.20;;;;;;;;;;5007497;28;20178;-84
2022/08/05 00:12:41;;;;;;;3.93;2.77;;;;;;;;;;5018776;28;20224;-84
2022/08/05 00:15:45;;;;;;;5.30;2.40;;;;;;;;;;5029828;28;20184;-84
2022/08/05 00:18:50;;;;;;;3.83;2.40;;;;;;;;;;5006603;28;20209;-84
2022/08/05 00:21:54;;;;;;;3.87;2.60;;;;;;;;;;5006201;28;20570;-84
2022/08/05 00:24:58;;;;;;;6.23;2.93;;;;;;;;;;5017951;28;20177;-84
2022/08/05 00:28:03;;;;;;;5.67;2.73;;;;;;;;;;5018579;28;20193;-84
2022/08/05 00:31:07;;;;;;;5.43;2.80;;;;;;;;;;5040373;28;20213;-84
2022/08/05 00:34:11;;;;;;;4.30;2.80;;;;;;;;;;5029032;28;20204;-84
2022/08/05 00:37:15;;;;;;;5.70;3.00;;;;;;;;;;5006571;28;20555;-84
2022/08/05 00:40:22;;;;;;;3.10;2.80;;;;;;;;;;5005199;28;20224;-84
2022/08/05 00:43:27;;;;;;;3.37;2.60;;;;;;;;;;5028715;28;20181;-84
2022/08/05 00:46:31;;;;;;;3.50;2.37;;;;;;;;;;5018121;28;20185;-84
2022/08/05 00:49:36;;;;;;;3.83;2.63;;;;;;;;;;5016364;28;20173;-85
2022/08/05 00:52:40;;;;;;;3.80;2.90;;;;;;;;;;5016485;28;20220;-84
2022/08/05 00:55:44;;;;;;;3.43;3.10;;;;;;;;;;5005650;28;20177;-84
2022/08/05 00:58:49;;;;;;;2.97;2.67;;;;;;;;;;5016570;28;20208;-84
2022/08/05 01:01:53;;;;;;;4.77;2.73;;;;;;;;;;5006262;28;20216;-84
2022/08/05 01:04:58;;;;;;;4.07;3.10;;;;;;;;;;5006629;28;20201;-84
2022/08/05 01:08:03;;;;;;;3.93;2.63;;;;;;;;;;5017264;28;20181;-84
2022/08/05 01:11:33;;;;;;;3.27;2.97;;;;;;;;;;5016575;28;20545;-84
2022/08/05 01:14:47;;;;;;;4.47;3.07;;;;;;;;;;5029163;28;20185;-84
2022/08/05 01:17:56;;;;;;;3.50;2.80;;;;;;;;;;5006754;28;20181;-85
2022/08/05 01:21:38;;;;;;;5.90;3.03;;;;;;;;;;5005897;28;20707;-84
2022/08/05 01:24:48;;;;;;;2.83;2.60;;;;;;;;;;5005448;28;20177;-84
2022/08/05 01:28:26;;;;;;;4.20;2.97;;;;;;;;;;5006063;28;20521;-84
2022/08/05 01:31:39;;;;;;;3.33;3.00;;;;;;;;;;5006158;28;20208;-84
2022/08/05 01:35:02;;;;;;;4.03;2.90;;;;;;;;;;5005493;28;20674;-84
2022/08/05 01:38:08;;;;;;;3.27;2.87;;;;;;;;;;5004494;28;20177;-84
2022/08/05 01:41:16;;;;;;;5.10;3.00;;;;;;;;;;5016135;28;20225;-84
2022/08/05 01:44:22;;;;;;;3.83;2.77;;;;;;;;;;5027190;28;20177;-84
2022/08/05 01:47:30;;;;;;;7.27;3.40;;;;;;;;;;5004892;28;20177;-84
2022/08/05 01:50:39;;;;;;;3.37;3.10;;;;;;;;;;5004532;28;20181;-84
2022/08/05 01:53:46;;;;;;;4.33;3.00;;;;;;;;;;5014503;28;20177;-84
2022/08/05 01:56:52;;;;;;;3.33;2.70;;;;;;;;;;5004712;28;20177;-84
2022/08/05 02:00:02;;;;;;;4.73;2.87;;;;;;;;;;5004898;28;20209;-84
2022/08/05 02:03:16;;;;;;;3.77;3.30;;;;;;;;;;5026423;28;20181;-84
2022/08/05 02:06:20;;;;;;;9.17;6.97;;;;;;;;;;5012824;28;20177;-83
2022/08/05 02:09:24;;;;;;;9.60;7.00;;;;;;;;;;5023102;28;20180;-83
2022/08/05 02:12:40;;;;;;;6.87;5.67;;;;;;;;;;5012054;28;20687;-84
2022/08/05 02:16:01;;;;;;;9.83;7.13;;;;;;;;;;5023355;28;20196;-83
2022/08/05 02:19:13;;;;;;;8.00;6.27;;;;;;;;;;5023436;28;20181;-83
2022/08/05 02:22:31;;;;;;;9.20;4.53;;;;;;;;;;5011218;28;20220;-83
2022/08/05 02:25:40;;;;;;;3.90;3.50;;;;;;;;;;5000429;28;20659;-84
2022/08/05 02:28:46;;;;;;;5.33;3.23;;;;;;;;;;5000625;28;20181;-83
2022/08/05 02:31:53;;;;;;;6.73;3.10;;;;;;;;;;5022912;28;20209;-84
2022/08/05 02:35:00;;;;;;;5.20;3.30;;;;;;;;;;5000458;28;20177;-83
2022/08/05 02:38:05;;;;;;;4.87;3.80;;;;;;;;;;5011165;28;20181;-83
2022/08/05 02:41:10;;;;;;;4.07;3.30;;;;;;;;;;5022091;28;20228;-83
2022/08/05 02:44:15;;;;;;;3.37;3.07;;;;;;;;;;5022148;28;20632;-84
2022/08/05 02:47:20;;;;;;;3.97;3.53;;;;;;;;;;4999854;28;20176;-83
2022/08/05 02:50:25;;;;;;;3.80;3.30;;;;;;;;;;4999987;28;20177;-83
2022/08/05 02:53:32;;;;;;;4.13;3.13;;;;;;;;;;5021675;28;20177;-83
2022/08/05 02:56:37;;;;;;;4.63;3.40;;;;;;;;;;5011361;28;20577;-84
2022/08/05 02:59:45;;;;;;;3.50;3.20;;;;;;;;;;5011293;28;20212;-84
2022/08/05 03:02:51;;;;;;;5.20;3.40;;;;;;;;;;5001136;28;20532;-85
2022/08/05 03:05:56;;;;;;;4.50;3.33;;;;;;;;;;4991306;28;20189;-85
2022/08/05 03:09:01;;;;;;;4.57;3.00;;;;;;;;;;5013357;28;20204;-85
2022/08/05 03:12:06;;;;;;;3.27;2.97;;;;;;;;;;5022274;28;20557;-85
2022/08/05 03:15:10;;;;;;;6.60;3.40;;;;;;;;;;5014771;28;20180;-85
2022/08/05 03:18:14;;;;;;;4.00;3.23;;;;;;;;;;5025881;28;20200;-85
2022/08/05 03:21:18;;;;;;;4.10;3.33;;;;;;;;;;5003452;28;20232;-85
2022/08/05 03:24:23;;;;;;;7.53;3.30;;;;;;;;;;4998175;28;20208;-84
2022/08/05 03:27:27;;;;;;;5.23;3.67;;;;;;;;;;4986278;28;20201;-84
2022/08/05 03:30:32;;;;;;;3.90;3.47;;;;;;;;;;4998040;28;20182;-84
2022/08/05 03:33:37;;;;;;;5.20;3.70;;;;;;;;;;4987776;28;20178;-85
2022/08/05 03:36:41;;;;;;;6.67;2.93;;;;;;;;;;5003226;28;20178;-84
2022/08/05 03:39:56;;;;;;;4.53;3.27;;;;;;;;;;5033245;28;20176;-85
2022/08/05 03:43:00;;;;;;;9.53;3.90;;;;;;;;;;5010958;28;20177;-85
2022/08/05 03:46:05;;;;;;;5.97;3.37;;;;;;;;;;5033120;28;20184;-85
2022/08/05 03:49:09;;;;;;;7.37;3.57;;;;;;;;;;5009492;28;20623;-85
2022/08/05 03:52:25;;;;;;;5.97;3.60;;;;;;;;;;5032466;23;20236;-84
2022/08/05 03:55:36;;;;;;;4.53;3.60;;;;;;;;;;4994626;28;20178;-84
2022/08/05 03:58:43;;;;;;;4.13;3.47;;;;;;;;;;5005884;28;20193;-84
2022/08/05 04:01:50;;;;;;;5.30;3.37;;;;;;;;;;4994713;28;20229;-84
2022/08/05 04:04:56;;;;;;;7.73;3.90;;;;;;;;;;4994676;28;20193;-84
2022/08/05 04:08:06;;;;;;;5.90;4.20;;;;;;;;;;4994606;28;20198;-85
2022/08/05 04:11:10;;;;;;;4.23;3.53;;;;;;;;;;4994889;28;20561;-85
2022/08/05 04:14:16;;;;;;;8.40;3.63;;;;;;;;;;4983551;28;20186;-85
2022/08/05 04:17:20;;;;;;;5.40;3.70;;;;;;;;;;4995096;28;20181;-85
2022/08/05 04:20:24;;;;;;;3.93;3.50;;;;;;;;;;4995229;28;20205;-85
2022/08/05 04:23:29;;;;;;;4.40;3.47;;;;;;;;;;5005383;28;20181;-85
2022/08/05 04:26:33;;;;;;;4.03;3.63;;;;;;;;;;4994268;28;20186;-85
2022/08/05 04:29:38;;;;;;;5.53;4.00;;;;;;;;;;4994327;28;20517;-84
2022/08/05 04:32:42;;;;;;;5.10;3.67;;;;;;;;;;5017243;28;20209;-84
2022/08/05 04:35:46;;;;;;;4.70;3.67;;;;;;;;;;4995865;28;20533;-84
2022/08/05 04:38:53;;;;;;;6.57;3.80;;;;;;;;;;4998619;28;20182;-85
2022/08/05 04:41:57;;;;;;;9.80;4.30;;;;;;;;;;4997786;28;20229;-85
2022/08/05 04:45:02;;;;;;;8.43;4.00;;;;;;;;;;4997961;28;20193;-85
2022/08/05 04:48:09;;;;;;;5.60;4.07;;;;;;;;;;5011075;28;20656;-87
2022/08/05 04:51:14;;;;;;;5.70;4.10;;;;;;;;;;4999598;28;20221;-86
2022/08/05 04:54:18;;;;;;;6.13;4.00;;;;;;;;;;5012499;28;20178;-86
2022/08/05 04:57:24;;;;;;;5.13;4.10;;;;;;;;;;5011213;28;20185;-86
2022/08/05 05:00:28;;;;;;;5.50;3.83;;;;;;;;;;5022562;28;20205;-87
2022/08/05 05:03:33;;;;;;;6.77;4.23;;;;;;;;;;4998580;28;20174;-85
2022/08/05 05:06:37;;;;;;;4.97;3.77;;;;;;;;;;4982746;28;20178;-85
2022/08/05 05:09:42;;;;;;;5.57;3.70;;;;;;;;;;5001130;28;20201;-85
2022/08/05 05:12:47;;;;;;;6.43;3.90;;;;;;;;;;5014175;28;20557;-91
2022/08/05 05:15:51;;;;;;;6.17;4.10;;;;;;;;;;4992935;28;20526;-86
2022/08/05 05:18:55;;;;;;;7.37;4.33;;;;;;;;;;4981315;28;20177;-86
2022/08/05 05:22:00;;;;;;;5.20;3.83;;;;;;;;;;4981659;28;20569;-85
2022/08/05 05:25:05;;;;;;;6.63;4.00;;;;;;;;;;4980881;28;20181;-84
2022/08/05 05:28:10;;;;;;;4.40;4.00;;;;;;;;;;4982300;28;20636;-85
2022/08/05 05:31:14;;;;;;;9.07;5.03;;;;;;;;;;4992729;28;20213;-85
2022/08/05 05:34:18;;;;;;;4.57;3.87;;;;;;;;;;4981943;28;20178;-85
2022/08/05 05:37:22;;;;;;;4.07;3.67;;;;;;;;;;4981418;28;20181;-85
2022/08/05 05:40:26;;;;;;;4.57;4.03;;;;;;;;;;5003982;28;20182;-84
2022/08/05 05:43:30;;;;;;;8.93;4.50;;;;;;;;;;4992546;28;20186;-85
2022/08/05 05:46:34;;;;;;;7.37;4.40;;;;;;;;;;4992848;28;20182;-84
2022/08/05 05:49:38;;;;;;;5.50;3.83;;;;;;;;;;4992326;28;20201;-85
2022/08/05 05:52:43;;;;;;;3.93;3.30;;;;;;;;;;4981167;28;20216;-84
2022/08/05 05:55:47;;;;;;;4.47;3.77;;;;;;;;;;5015052;28;20178;-85
2022/08/05 05:58:51;;;;;;;4.70;3.87;;;;;;;;;;4981102;28;20193;-84
2022/08/05 06:01:55;;;;;;;3.90;3.60;;;;;;;;;;4981409;28;20224;-84
2022/08/05 06:05:00;;;;;;;6.00;3.83;;;;;;;;;;4980952;28;20201;-84
2022/08/05 06:08:04;;;;;;;5.27;3.63;;;;;;;;;;4981124;28;20201;-84
2022/08/05 06:11:08;;;;;;;6.87;3.37;;;;;;;;;;4981239;28;20214;-85
2022/08/05 06:14:12;;;;;;;6.17;4.00;;;;;;;;;;4981888;28;20182;-85
2022/08/05 06:17:16;;;;;;;7.70;3.93;;;;;;;;;;5003750;28;20514;-84
2022/08/05 06:20:20;;;;;;;5.13;4.60;;;;;;;;;;4992800;28;20191;-85
2022/08/05 06:23:25;;;;;;;4.20;3.80;;;;;;;;;;4993106;28;20185;-85
2022/08/05 06:26:29;;;;;;;6.67;3.67;;;;;;;;;;4984163;28;20184;-85
2022/08/05 06:29:35;;;;;;;8.77;3.67;;;;;;;;;;4984123;28;20188;-84
2022/08/05 06:32:39;;;;;;;6.90;3.27;;;;;;;;;;4983616;28;20561;-85
2022/08/05 06:35:43;;;;;;;4.17;3.30;;;;;;;;;;4983659;28;20197;-85
2022/08/05 06:38:52;;;;;;;3.40;3.10;;;;;;;;;;4984426;28;20185;-85
2022/08/05 06:41:57;;;;;;;6.17;2.90;;;;;;;;;;4983997;28;20233;-84
2022/08/05 06:45:03;;;;;;;123.43;8.27;;;;;;;;;;4983459;28;20180;-85
2022/08/05 06:48:07;;;;;;;4.53;3.50;;;;;;;;;;4983762;28;20194;-85
2022/08/05 06:51:11;;;;;;;4.70;2.90;;;;;;;;;;4983330;28;20220;-83
2022/08/05 06:54:15;;;;;;;4.73;3.50;;;;;;;;;;4983772;28;20177;-85
2022/08/05 06:57:19;;;;;;;7.33;3.43;;;;;;;;;;4983324;28;20647;-85
2022/08/05 07:00:23;;;;;;;118.43;10.03;;;;;;;;;;4984864;28;20185;-85
2022/08/05 07:03:29;;;;;;;11.03;3.90;;;;;;;;;;4972503;28;20187;-85
2022/08/05 07:06:32;;;;;;;4.97;3.23;;;;;;;;;;4983445;28;20186;-85
2022/08/05 07:09:37;;;;;;;4.03;3.63;;;;;;;;;;4973200;28;20186;-85
2022/08/05 07:19:27;;;;;;;4.97;3.83;;;;;;;;;;4983589;28;20187;-85
2022/08/05 07:22:32;;;;;;;9.60;3.90;;;;;;;;;;4971291;28;20226;-85
2022/08/05 07:25:36;;;;;;;5.53;4.20;;;;;;;;;;4971854;28;20186;-85
2022/08/05 07:28:40;;;;;;;28.43;5.13;;;;;;;;;;4972378;28;20179;-85
2022/08/05 07:31:44;;;;;;;6.23;4.00;;;;;;;;;;4961033;28;20220;-85
2022/08/05 07:34:48;;;;;;;4.83;3.70;;;;;;;;;;4971814;28;20187;-85
2022/08/05 07:37:53;;;;;;;4.27;3.70;;;;;;;;;;4972974;28;20182;-85
2022/08/05 07:40:57;;;;;;;6.97;3.97;;;;;;;;;;4960657;28;20184;-85
2022/08/05 07:44:02;;;;;;;8.70;3.97;;;;;;;;;;4972288;28;20183;-85
2022/08/05 07:47:06;;;;;;;6.93;3.80;;;;;;;;;;4960983;28;20186;-85
2022/08/05 07:50:11;;;;;;;6.07;3.78;;;;;;;;;;4983358;28;20184;-85
2022/08/05 07:53:15;;;;;;;5.25;3.80;;;;;;;;;;4982542;28;20174;-85
2022/08/05 07:56:19;;;;;;;8.10;3.40;;;;;;;;;;4972520;28;20187;-85
2022/08/05 07:59:23;;;;;;;17.88;3.70;;;;;;;;;;4961865;28;20179;-85
2022/08/05 08:02:28;;;;;;;11.93;3.60;;;;;;;;;;4985818;28;20587;-85
2022/08/05 08:05:32;;;;;;;6.82;3.70;;;;;;;;;;4974749;28;20183;-85
2022/08/05 08:08:36;;;;;;;11.40;3.20;;;;;;;;;;4964008;28;20188;-85
2022/08/05 08:11:40;;;;;;;72.57;6.13;;;;;;;;;;4963809;28;20219;-85
2022/08/05 08:14:45;;;;;;;9.60;3.15;;;;;;;;;;4969703;28;20580;-85
2022/08/05 08:17:49;;;;;;;10.40;3.33;;;;;;;;;;5005175;28;20187;-85
2022/08/05 08:20:53;;;;;;;9.13;3.00;;;;;;;;;;4990407;28;20208;-85
2022/08/05 08:23:57;;;;;;;9.32;2.88;;;;;;;;;;4993597;28;20182;-85
2022/08/05 08:27:02;;;;;;;6.07;3.05;;;;;;;;;;4993389;28;20177;-85
2022/08/05 08:30:10;;;;;;;23.30;3.80;;;;;;;;;;4992979;28;20200;-85
2022/08/05 08:33:14;;;;;;;10.70;3.25;;;;;;;;;;4993357;28;20184;-85
2022/08/05 08:36:18;;;;;;;6.07;3.17;;;;;;;;;;5014981;28;20218;-85
2022/08/05 08:39:23;;;;;;;8.70;3.00;;;;;;;;;;4993043;28;20194;-85
2022/08/05 08:42:28;;;;;;;7.47;3.08;;;;;;;;;;4984421;28;20226;-85
2022/08/05 08:45:33;;;;;;;7.53;2.83;;;;;;;;;;4973074;28;20541;-85
2022/08/05 08:48:40;;;;;;;5.38;3.10;;;;;;;;;;4973154;28;20202;-86
2022/08/05 08:51:48;;;;;;;4.88;2.35;;;;;;;;;;4973461;28;20214;-85
2022/08/05 08:54:53;;;;;;;9.20;2.60;;;;;;;;;;4973898;28;20182;-86
2022/08/05 08:58:01;;;;;;;11.73;2.53;;;;;;;;;;4973044;28;20179;-85
2022/08/05 09:01:06;;;;;;;8.13;2.40;;;;;;;;;;4972726;28;20711;-85
2022/08/05 09:04:12;;;;;;;15.63;3.25;;;;;;;;;;4973319;28;20522;-86
2022/08/05 09:07:16;;;;;;;50.47;4.28;;;;;;;;;;4973274;28;20186;-86
2022/08/05 09:10:21;;;;;;;4.63;2.30;;;;;;;;;;4982816;28;20182;-86
2022/08/05 09:13:25;;;;;;;8.98;2.10;;;;;;;;;;4973247;28;20634;-86
2022/08/05 09:16:30;;;;;;;3.92;1.98;;;;;;;;;;4984542;28;20183;-84
2022/08/05 09:19:35;;;;;;;95.97;6.88;;;;;;;;;;4972956;28;20179;-83
2022/08/05 09:23:01;;;;;;;9.00;2.10;;;;;;;;;;4983610;28;20238;-84
2022/08/05 09:26:11;;;;;;;5.97;2.42;;;;;;;;;;4983900;28;20191;-85
2022/08/05 09:29:15;;;;;;;15.05;2.85;;;;;;;;;;4983985;28;20190;-85
2022/08/05 09:32:33;;;;;;;10.10;2.60;;;;;;;;;;4983624;28;20213;-85
2022/08/05 09:35:51;;;;;;;5.28;1.98;;;;;;;;;;4972652;28;20179;-85
2022/08/05 09:38:59;;;;;;;13.07;2.60;;;;;;;;;;4995799;28;20553;-85
2022/08/05 09:42:05;;;;;;;11.02;2.03;;;;;;;;;;4972272;28;20233;-85
2022/08/05 09:45:10;;;;;;;16.80;2.60;;;;;;;;;;4982977;28;20262;-85
2022/08/05 09:48:26;;;;;;;42.30;3.95;;;;;;;;;;4983308;28;20562;-85
2022/08/05 09:51:37;;;;;;;7.88;2.17;;;;;;;;;;4982991;28;20736;-85
2022/08/05 09:55:00;;;;;;;7.25;2.20;;;;;;;;;;4997727;28;20202;-85
2022/08/05 09:58:12;;;;;;;18.20;2.28;;;;;;;;;;5013870;28;20186;-85
2022/08/05 10:01:16;;;;;;;56.55;4.55;;;;;;;;;;4980402;28;20236;-85
2022/08/05 10:04:34;;;;;;;2.97;1.48;;;;;;;;;;5002517;28;20681;-85
2022/08/05 10:07:59;;;;;;;6.63;1.92;;;;;;;;;;5034614;22;20713;-84
2022/08/05 10:11:13;;;;;;;8.75;1.73;;;;;;;;;;5061982;28;20180;-84
2022/08/05 10:14:28;;;;;;;3.88;1.83;;;;;;;;;;5038726;28;20188;-84
2022/08/05 10:17:32;;;;;;;6.25;2.50;;;;;;;;;;5050207;28;20215;-83
2022/08/05 10:21:01;;;;;;;2.20;1.70;;;;;;;;;;5039700;28;20183;-83
2022/08/05 10:24:06;;;;;;;11.35;2.28;;;;;;;;;;5061160;28;20183;-84
2022/08/05 10:27:12;;;;;;;3.80;1.73;;;;;;;;;;5019972;28;20220;-84
2022/08/05 10:30:16;;;;;;;3.97;1.77;;;;;;;;;;5042027;28;20177;-83
2022/08/05 10:33:22;;;;;;;4.38;1.80;;;;;;;;;;5041485;28;20515;-84
2022/08/05 10:36:26;;;;;;;4.13;2.00;;;;;;;;;;5041643;28;20185;-84
2022/08/05 10:39:34;;;;;;;4.88;2.10;;;;;;;;;;5041195;28;20195;-84
2022/08/05 10:42:40;;;;;;;53.83;3.72;;;;;;;;;;5030135;28;20220;-84
2022/08/05 10:45:58;;;;;;;4.75;1.95;;;;;;;;;;5042470;28;20647;-83
2022/08/05 10:49:07;;;;;;;2.42;1.73;;;;;;;;;;5061008;28;20220;-83
2022/08/05 10:52:42;;;;;;;4.07;2.10;;;;;;;;;;5049942;28;20191;-83
2022/08/05 10:56:03;;;;;;;4.70;1.88;;;;;;;;;;5039078;28;20184;-83
2022/08/05 10:59:07;;;;;;;4.30;1.92;;;;;;;;;;5050447;28;20216;-83
2022/08/05 11:02:13;;;;;;;7.72;1.70;;;;;;;;;;5050481;28;20235;-83
2022/08/05 11:05:17;;;;;;;4.63;1.67;;;;;;;;;;5073831;28;20180;-83
2022/08/05 11:08:21;;;;;;;5.45;1.75;;;;;;;;;;5038298;28;20219;-83
2022/08/05 11:11:36;;;;;;;9.75;2.10;;;;;;;;;;5049476;28;20175;-83
2022/08/05 11:14:40;;;;;;;5.38;2.00;;;;;;;;;;5038496;28;20516;-83
2022/08/05 11:17:52;;;;;;;3.92;1.80;;;;;;;;;;5050655;28;20215;-83
2022/08/05 11:20:56;;;;;;;3.45;1.60;;;;;;;;;;5061929;28;20662;-83
2022/08/05 11:24:07;;;;;;;4.43;1.63;;;;;;;;;;5061830;28;20211;-83
2022/08/05 11:27:28;;;;;;;5.72;2.13;;;;;;;;;;5073237;28;20220;-83
2022/08/05 11:30:55;;;;;;;3.83;1.80;;;;;;;;;;5038508;28;20184;-83
2022/08/05 11:34:05;;;;;;;5.13;1.65;;;;;;;;;;5062172;28;20180;-83
2022/08/05 11:37:09;;;;;;;67.35;4.38;;;;;;;;;;5065702;28;20220;-83
2022/08/05 11:40:13;;;;;;;4.63;1.63;;;;;;;;;;5076860;28;20183;-83
2022/08/05 11:43:20;;;;;;;6.15;1.65;;;;;;;;;;5043381;28;20208;-83
2022/08/05 11:46:48;;;;;;;5.45;1.95;;;;;;;;;;5054917;28;20187;-83
2022/08/05 11:49:57;;;;;;;1.85;1.60;;;;;;;;;;5065713;28;20183;-83
2022/08/05 11:53:04;;;;;;;10.30;2.20;;;;;;;;;;5053605;28;20188;-83
2022/08/05 11:56:08;;;;;;;3.42;2.00;;;;;;;;;;5074372;28;20202;-83
2022/08/05 11:59:18;;;;;;;3.03;2.03;;;;;;;;;;5042376;28;20223;-83
2022/08/05 12:02:25;;;;;;;5.22;1.88;;;;;;;;;;5042518;28;20176;-83
2022/08/05 12:05:29;;;;;;;11.05;2.15;;;;;;;;;;5054692;28;20180;-83
2022/08/05 12:08:39;;;;;;;59.53;4.90;;;;;;;;;;5051690;28;20597;-84
2022/08/05 12:11:46;;;;;;;3.35;1.92;;;;;;;;;;5034405;28;20558;-83
2022/08/05 12:14:50;;;;;;;4.60;1.83;;;;;;;;;;5045070;28;20177;-82
2022/08/05 12:17:54;;;;;;;9.77;2.05;;;;;;;;;;5032952;28;20219;-83
2022/08/05 12:21:10;;;;;;;9.15;2.00;;;;;;;;;;5068087;28;20539;-83
2022/08/05 12:24:17;;;;;;;5.65;1.80;;;;;;;;;;5052392;28;20204;-84
2022/08/05 12:27:23;;;;;;;2.05;1.60;;;;;;;;;;5032598;28;20211;-84
2022/08/05 12:30:36;;;;;;;3.72;1.63;;;;;;;;;;5057480;28;20195;-85
2022/08/05 12:33:43;;;;;;;4.43;1.90;;;;;;;;;;5054536;28;20181;-84
2022/08/05 12:36:52;;;;;;;3.70;2.05;;;;;;;;;;5041414;28;20183;-84
2022/08/05 12:39:57;;;;;;;4.53;1.83;;;;;;;;;;5059498;28;20243;-84
2022/08/05 12:43:01;;;;;;;5.10;1.77;;;;;;;;;;5043529;28;20220;-84
2022/08/05 12:46:05;;;;;;;3.50;1.73;;;;;;;;;;5048629;28;20179;-85
2022/08/05 12:49:16;;;;;;;2.65;1.55;;;;;;;;;;5033823;28;20220;-84
2022/08/05 12:52:20;;;;;;;5.03;2.10;;;;;;;;;;5049978;28;20187;-84
2022/08/05 12:55:27;;;;;;;3.05;1.83;;;;;;;;;;5050344;28;20638;-85
2022/08/05 12:58:31;;;;;;;4.85;1.90;;;;;;;;;;5048833;28;20689;-85
2022/08/05 13:01:36;;;;;;;2.20;1.75;;;;;;;;;;5027452;28;20192;-85
2022/08/05 13:04:42;;;;;;;3.70;1.52;;;;;;;;;;5061746;28;20200;-85
2022/08/05 13:07:46;;;;;;;11.98;2.35;;;;;;;;;;5030042;28;20683;-85
2022/08/05 13:10:50;;;;;;;4.65;1.60;;;;;;;;;;5030386;28;20198;-85
2022/08/05 13:13:58;;;;;;;5.72;1.90;;;;;;;;;;5058420;28;20180;-85
2022/08/05 13:17:07;;;;;;;67.25;4.75;;;;;;;;;;5052590;28;20193;-84
2022/08/05 13:20:19;;;;;;;3.80;1.92;;;;;;;;;;5074246;28;20187;-85
2022/08/05 13:23:23;;;;;;;5.00;1.70;;;;;;;;;;5019833;28;20216;-85
2022/08/05 13:26:29;;;;;;;4.57;1.52;;;;;;;;;;5054765;28;20647;-85
2022/08/05 13:29:33;;;;;;;1.45;1.33;;;;;;;;;;5062941;28;20176;-85
2022/08/05 13:32:37;;;;;;;3.05;1.63;;;;;;;;;;5059936;28;20204;-85
2022/08/05 13:35:41;;;;;;;4.18;1.73;;;;;;;;;;5049398;28;20655;-84
2022/08/05 13:38:45;;;;;;;9.18;1.98;;;;;;;;;;5032359;28;20220;-85
2022/08/05 13:41:49;;;;;;;3.72;1.92;;;;;;;;;;5052442;28;20654;-85
2022/08/05 13:44:56;;;;;;;2.35;1.50;;;;;;;;;;5036107;28;20677;-85
2022/08/05 13:48:00;;;;;;;4.03;1.90;;;;;;;;;;5050534;28;20215;-85
2022/08/05 13:51:09;;;;;;;6.18;2.05;;;;;;;;;;5052325;28;20188;-85
2022/08/05 13:54:15;;;;;;;5.00;1.70;;;;;;;;;;5042341;28;20192;-85
2022/08/05 13:57:20;;;;;;;11.52;2.13;;;;;;;;;;5018939;28;20211;-84
2022/08/05 14:00:24;;;;;;;3.65;1.98;;;;;;;;;;5042458;28;20188;-84
2022/08/05 14:03:28;;;;;;;5.15;1.60;;;;;;;;;;5030531;28;20556;-84
2022/08/05 14:06:33;;;;;;;3.80;1.60;;;;;;;;;;5020038;28;20189;-85
2022/08/05 14:09:38;;;;;;;3.33;1.60;;;;;;;;;;5038090;28;20176;-85
2022/08/05 14:12:43;;;;;;;7.32;2.42;;;;;;;;;;5041007;28;20673;-84
2022/08/05 14:15:47;;;;;;;3.63;1.80;;;;;;;;;;5073497;28;20187;-84
2022/08/05 14:18:51;;;;;;;3.78;2.00;;;;;;;;;;5041015;28;20220;-84
2022/08/05 14:21:55;;;;;;;12.00;2.08;;;;;;;;;;5042003;28;20180;-85
2022/08/05 14:25:00;;;;;;;5.57;1.63;;;;;;;;;;5040360;28;20687;-84
2022/08/05 14:28:04;;;;;;;2.00;1.80;;;;;;;;;;5060548;28;20219;-85
2022/08/05 14:31:09;;;;;;;3.80;2.10;;;;;;;;;;5049912;28;20184;-84
2022/08/05 14:34:13;;;;;;;5.45;2.13;;;;;;;;;;5054810;28;20185;-85
2022/08/05 14:37:17;;;;;;;21.25;3.00;;;;;;;;;;5037144;28;20231;-85
2022/08/05 14:40:21;;;;;;;13.43;2.00;;;;;;;;;;5048482;28;20197;-85
2022/08/05 14:43:26;;;;;;;11.18;2.40;;;;;;;;;;5048500;28;20576;-84
2022/08/05 14:46:31;;;;;;;6.90;1.95;;;;;;;;;;5040532;28;20191;-85
2022/08/05 14:49:35;;;;;;;4.57;1.92;;;;;;;;;;5037264;28;20179;-85
2022/08/05 14:52:40;;;;;;;4.35;1.70;;;;;;;;;;5052244;28;20184;-85
2022/08/05 14:55:44;;;;;;;1.52;1.42;;;;;;;;;;5045375;28;20172;-85
2022/08/05 14:58:48;;;;;;;3.22;1.63;;;;;;;;;;5045102;28;20216;-85
2022/08/05 15:01:53;;;;;;;40.80;4.32;;;;;;;;;;5051536;28;20675;-85
2022/08/05 15:04:57;;;;;;;1.98;1.77;;;;;;;;;;5040495;28;20222;-85
2022/08/05 15:08:04;;;;;;;14.55;2.63;;;;;;;;;;5026140;28;20701;-85
2022/08/05 15:11:12;;;;;;;5.22;2.00;;;;;;;;;;5046477;28;20195;-85
2022/08/05 15:14:16;;;;;;;7.15;2.67;;;;;;;;;;5045894;28;20188;-85
2022/08/05 15:17:20;;;;;;;3.90;1.92;;;;;;;;;;5048425;28;20219;-85
2022/08/05 15:20:24;;;;;;;19.88;2.47;;;;;;;;;;5046571;28;20183;-85
2022/08/05 15:23:28;;;;;;;45.80;5.65;;;;;;;;;;5033409;28;20215;-85
2022/08/05 15:26:32;;;;;;;3.17;1.98;;;;;;;;;;5056381;28;20188;-85
2022/08/05 15:29:36;;;;;;;2.75;1.90;;;;;;;;;;5054716;28;20639;-85
2022/08/05 15:32:41;;;;;;;7.75;2.08;;;;;;;;;;5021917;28;20196;-85
2022/08/05 15:35:45;;;;;;;22.13;9.05;;;;;;;;;;5044330;28;20184;-85
2022/08/05 15:38:50;;;;;;;29.67;4.20;;;;;;;;;;5046333;28;20578;-84
2022/08/05 15:41:54;;;;;;;4.78;2.55;;;;;;;;;;5042499;28;20198;-84
2022/08/05 15:44:58;;;;;;;3.28;2.30;;;;;;;;;;5061491;28;20207;-85
2022/08/05 15:48:03;;;;;;;6.38;2.30;;;;;;;;;;5044580;28;20220;-84
2022/08/05 15:51:07;;;;;;;5.25;2.08;;;;;;;;;;5056209;28;20199;-84
2022/08/05 15:54:11;;;;;;;7.57;3.97;;;;;;;;;;5036822;28;20543;-84
2022/08/05 15:57:16;;;;;;;3.60;1.85;;;;;;;;;;5064882;28;20219;-84
2022/08/05 16:00:20;;;;;;;6.88;2.22;;;;;;;;;;5058610;28;20196;-85
2022/08/05 16:03:25;;;;;;;5.18;2.10;;;;;;;;;;5036338;28;20196;-84
2022/08/05 16:06:29;;;;;;;9.20;2.08;;;;;;;;;;5060613;28;20199;-84
2022/08/05 16:09:34;;;;;;;5.50;2.00;;;;;;;;;;5053167;28;20192;-84
2022/08/05 16:12:38;;;;;;;7.07;1.60;;;;;;;;;;5064063;28;20180;-84
2022/08/05 16:15:42;;;;;;;12.98;2.67;;;;;;;;;;5062913;28;20188;-84
2022/08/05 16:18:46;;;;;;;1.90;1.42;;;;;;;;;;5034323;28;20223;-84
2022/08/05 16:21:51;;;;;;;3.25;1.60;;;;;;;;;;5029784;28;20188;-84
2022/08/05 16:24:55;;;;;;;10.32;3.70;;;;;;;;;;5023174;28;20204;-84
2022/08/05 16:28:04;;;;;;;8.40;3.55;;;;;;;;;;5059671;28;20222;-84
2022/08/05 16:31:08;;;;;;;2.50;2.30;;;;;;;;;;5079328;22;20192;-85
2022/08/05 16:34:11;;;;;;;4.55;1.77;;;;;;;;;;5050536;28;20650;-85
2022/08/05 16:37:16;;;;;;;4.03;1.70;;;;;;;;;;5037780;28;20199;-86
2022/08/05 16:40:20;;;;;;;9.30;1.70;;;;;;;;;;5044146;28;20181;-86
2022/08/05 16:43:25;;;;;;;2.17;1.88;;;;;;;;;;5030244;28;20188;-83
2022/08/05 16:46:29;;;;;;;6.18;2.10;;;;;;;;;;5043538;28;20535;-82
2022/08/05 16:49:34;;;;;;;4.15;1.55;;;;;;;;;;5044554;28;20646;-86
2022/08/05 16:52:38;;;;;;;3.00;1.80;;;;;;;;;;5032162;28;20216;-85
2022/08/05 16:55:42;;;;;;;3.25;1.50;;;;;;;;;;5031949;28;20188;-85
2022/08/05 16:58:46;;;;;;;4.75;1.60;;;;;;;;;;5020908;28;20196;-85
2022/08/05 17:01:50;;;;;;;2.38;1.55;;;;;;;;;;5043360;28;20212;-85
2022/08/05 17:04:54;;;;;;;6.05;1.63;;;;;;;;;;5031838;28;20212;-85
2022/08/05 17:07:58;;;;;;;14.82;2.45;;;;;;;;;;5023347;28;20192;-85
2022/08/05 17:11:03;;;;;;;10.48;2.67;;;;;;;;;;5011774;28;20208;-85
2022/08/05 17:14:07;;;;;;;4.75;1.70;;;;;;;;;;5013431;28;20200;-86
2022/08/05 17:17:11;;;;;;;2.25;1.50;;;;;;;;;;5014427;28;20184;-86
2022/08/05 17:20:15;;;;;;;7.32;1.50;;;;;;;;;;5026080;28;20185;-86
2022/08/05 17:23:19;;;;;;;2.83;1.50;;;;;;;;;;5013926;28;20181;-85
2022/08/05 17:26:23;;;;;;;3.28;1.67;;;;;;;;;;5036175;28;20193;-85
2022/08/05 17:29:27;;;;;;;3.45;1.98;;;;;;;;;;5024799;28;20226;-85
2022/08/05 17:32:31;;;;;;;7.10;2.30;;;;;;;;;;5024538;28;20221;-85
2022/08/05 17:35:35;;;;;;;9.45;2.95;;;;;;;;;;5025274;28;20203;-85
2022/08/05 17:38:40;;;;;;;8.50;3.50;;;;;;;;;;5014806;28;20204;-85
2022/08/05 17:41:44;;;;;;;5.90;2.42;;;;;;;;;;5025910;28;20667;-85
2022/08/05 17:44:48;;;;;;;7.07;2.30;;;;;;;;;;5025724;28;20678;-85
2022/08/05 17:47:53;;;;;;;5.28;1.98;;;;;;;;;;5025924;28;20626;-85
2022/08/05 17:50:57;;;;;;;5.82;2.05;;;;;;;;;;5014367;28;20180;-84
2022/08/05 17:54:01;;;;;;;5.22;1.63;;;;;;;;;;5032052;28;20194;-84
2022/08/05 17:57:05;;;;;;;4.10;1.77;;;;;;;;;;5014783;28;20562;-84
2022/08/05 18:00:10;;;;;;;5.85;1.90;;;;;;;;;;5025849;28;20180;-84
2022/08/05 18:03:16;;;;;;;6.57;2.00;;;;;;;;;;5013648;28;20219;-84
2022/08/05 18:06:20;;;;;;;12.38;2.22;;;;;;;;;;5015499;28;20232;-85
2022/08/05 18:09:24;;;;;;;31.20;2.80;;;;;;;;;;5016266;28;20185;-85
2022/08/05 18:12:30;;;;;;;19.42;2.92;;;;;;;;;;5012718;28;20231;-85
2022/08/05 18:15:35;;;;;;;15.65;2.25;;;;;;;;;;4999678;28;20198;-85
2022/08/05 18:18:40;;;;;;;7.80;1.88;;;;;;;;;;5009389;28;20186;-88
2022/08/05 18:21:43;;;;;;;13.52;2.13;;;;;;;;;;5010775;28;20220;-87
2022/08/05 18:24:48;;;;;;;25.35;2.72;;;;;;;;;;5021685;28;20222;-87
2022/08/05 18:27:52;;;;;;;15.75;2.15;;;;;;;;;;5033766;28;20194;-87
2022/08/05 18:30:56;;;;;;;18.75;2.42;;;;;;;;;;5010408;28;20653;-86
2022/08/05 18:34:02;;;;;;;34.67;3.65;;;;;;;;;;5022083;28;20574;-88
2022/08/05 18:37:06;;;;;;;23.08;2.40;;;;;;;;;;5032902;28;20207;-87
2022/08/05 18:40:10;;;;;;;9.20;2.05;;;;;;;;;;5010716;28;20193;-87